Time;durP1;ratioP1;P1;durP2;ratioP2;P2;SDS_P1;SDS_P2;PMS_P1;PMS_P2;Temp;Humidity;BMP_temperature;BMP_pressure;BME280_temperature;BME280_humidity;BME280_pressure;Samples;Min_cycle;Max_cycle;Signal;HPM_P1;HPM_P2
2021/04/10 00:00:05;;;;;;;9.23;2.93;;;;;;;;;;5087313;28;20212;-68
2021/04/10 00:02:30;;;;;;;7.17;2.83;;;;;;;;;;5079985;28;20204;-68
2021/04/10 00:04:55;;;;;;;6.30;2.80;;;;;;;;;;5083656;28;20173;-68
2021/04/10 00:07:20;;;;;;;5.47;3.40;;;;;;;;;;5081422;28;20428;-68
2021/04/10 00:09:46;;;;;;;6.20;2.93;;;;;;;;;;5083097;28;20175;-69
2021/04/10 00:12:11;;;;;;;7.07;2.90;;;;;;;;;;5082806;28;20195;-68
2021/04/10 00:14:36;;;;;;;6.57;2.87;;;;;;;;;;5088498;28;20168;-68
2021/04/10 00:17:01;;;;;;;6.93;3.40;;;;;;;;;;5089594;28;20178;-69
2021/04/10 00:19:27;;;;;;;8.80;3.13;;;;;;;;;;5083912;28;20188;-67
2021/04/10 00:21:52;;;;;;;10.73;3.33;;;;;;;;;;5085299;28;20236;-69
2021/04/10 00:24:17;;;;;;;6.93;2.80;;;;;;;;;;5078609;28;20181;-68
2021/04/10 00:26:42;;;;;;;8.53;2.77;;;;;;;;;;5081797;28;20255;-68
2021/04/10 00:29:07;;;;;;;9.83;4.00;;;;;;;;;;5082583;28;20188;-68
2021/04/10 00:31:33;;;;;;;8.30;3.00;;;;;;;;;;5082641;28;20192;-68
2021/04/10 00:33:58;;;;;;;12.63;2.93;;;;;;;;;;5078563;28;20656;-68
2021/04/10 00:36:24;;;;;;;11.00;3.30;;;;;;;;;;5081860;28;20234;-68
2021/04/10 00:38:49;;;;;;;8.70;2.87;;;;;;;;;;5084513;28;20662;-68
2021/04/10 00:41:14;;;;;;;9.50;2.97;;;;;;;;;;5087607;28;20216;-68
2021/04/10 00:43:39;;;;;;;9.13;3.37;;;;;;;;;;5081956;28;20208;-68
2021/04/10 00:46:06;;;;;;;10.10;3.37;;;;;;;;;;5081653;28;20492;-68
2021/04/10 00:48:31;;;;;;;9.80;3.40;;;;;;;;;;5086092;28;20265;-68
2021/04/10 00:50:57;;;;;;;9.27;3.13;;;;;;;;;;5085556;28;20227;-68
2021/04/10 00:53:23;;;;;;;9.83;2.70;;;;;;;;;;5083529;28;20169;-68
2021/04/10 00:55:49;;;;;;;9.13;3.17;;;;;;;;;;5085682;28;20349;-68
2021/04/10 00:58:15;;;;;;;8.80;3.10;;;;;;;;;;5081444;28;20176;-69
2021/04/10 01:00:40;;;;;;;11.03;3.07;;;;;;;;;;5084538;28;20203;-68
2021/04/10 01:03:05;;;;;;;6.40;2.63;;;;;;;;;;5084775;28;20246;-67
2021/04/10 01:05:31;;;;;;;10.00;3.67;;;;;;;;;;5073966;28;20201;-68
2021/04/10 01:07:56;;;;;;;13.87;3.87;;;;;;;;;;5081190;28;20262;-68
2021/04/10 01:10:21;;;;;;;10.53;4.30;;;;;;;;;;5083400;28;20188;-69
2021/04/10 01:12:52;;;;;;;12.80;4.33;;;;;;;;;;5075024;28;20260;-68
2021/04/10 01:15:36;;;;;;;8.87;3.00;;;;;;;;;;5084003;28;20552;-69
2021/04/10 01:18:04;;;;;;;10.20;3.43;;;;;;;;;;5083277;28;20254;-69
2021/04/10 01:20:45;;;;;;;6.83;3.60;;;;;;;;;;5082379;28;20200;-69
2021/04/10 01:23:10;;;;;;;7.93;3.67;;;;;;;;;;5076034;28;20216;-69
2021/04/10 01:25:44;;;;;;;8.48;2.90;;;;;;;;;;5083085;28;20181;-69
2021/04/10 01:28:34;;;;;;;8.70;3.73;;;;;;;;;;5086671;28;20663;-68
2021/04/10 01:31:00;;;;;;;8.10;3.13;;;;;;;;;;5085371;28;20184;-68
2021/04/10 01:33:28;;;;;;;8.10;3.37;;;;;;;;;;5082612;28;20514;-69
2021/04/10 01:35:56;;;;;;;7.43;3.00;;;;;;;;;;5083016;28;20192;-69
2021/04/10 01:38:24;;;;;;;12.40;3.57;;;;;;;;;;5084740;28;20189;-69
2021/04/10 01:40:51;;;;;;;9.80;3.40;;;;;;;;;;5079262;28;20208;-68
2021/04/10 01:43:16;;;;;;;8.00;3.30;;;;;;;;;;5080606;28;20204;-67
2021/04/10 01:45:42;;;;;;;11.17;3.03;;;;;;;;;;5080135;28;20426;-69
2021/04/10 01:48:11;;;;;;;9.13;3.30;;;;;;;;;;5079047;28;20209;-67
2021/04/10 01:50:37;;;;;;;10.30;4.00;;;;;;;;;;5087069;28;20203;-68
2021/04/10 01:53:04;;;;;;;11.70;3.50;;;;;;;;;;5077526;28;20190;-69
2021/04/10 01:55:29;;;;;;;6.57;3.03;;;;;;;;;;5080982;28;20643;-67
2021/04/10 01:57:55;;;;;;;14.10;3.73;;;;;;;;;;5082498;28;20192;-68
2021/04/10 02:00:21;;;;;;;9.83;3.70;;;;;;;;;;5082559;28;20212;-68
2021/04/10 02:02:47;;;;;;;7.33;2.87;;;;;;;;;;5081090;28;20211;-68
2021/04/10 02:05:13;;;;;;;8.80;3.57;;;;;;;;;;5075388;28;20256;-68
2021/04/10 02:07:43;;;;;;;18.00;4.00;;;;;;;;;;5079741;28;20650;-69
2021/04/10 02:10:08;;;;;;;10.90;3.87;;;;;;;;;;5074958;28;20201;-68
2021/04/10 02:12:34;;;;;;;10.97;3.90;;;;;;;;;;5084439;28;20669;-69
2021/04/10 02:15:00;;;;;;;8.37;3.90;;;;;;;;;;5084611;28;20180;-69
2021/04/10 02:17:27;;;;;;;7.00;3.40;;;;;;;;;;5084345;28;20207;-68
2021/04/10 02:19:52;;;;;;;5.43;3.43;;;;;;;;;;5080664;28;20192;-69
2021/04/10 02:22:17;;;;;;;10.50;4.23;;;;;;;;;;5077356;28;20659;-68
2021/04/10 02:24:43;;;;;;;7.17;3.00;;;;;;;;;;5079431;28;20185;-69
2021/04/10 02:27:09;;;;;;;5.17;3.23;;;;;;;;;;5080633;28;20172;-68
2021/04/10 02:29:34;;;;;;;8.60;3.53;;;;;;;;;;5086870;28;20176;-68
2021/04/10 02:32:05;;;;;;;6.67;3.50;;;;;;;;;;5075155;28;20196;-69
2021/04/10 02:34:31;;;;;;;7.53;3.77;;;;;;;;;;5083190;28;20192;-68
2021/04/10 02:36:58;;;;;;;9.90;3.37;;;;;;;;;;5075275;28;20179;-69
2021/04/10 02:39:23;;;;;;;10.13;3.53;;;;;;;;;;5082616;28;20537;-69
2021/04/10 02:41:50;;;;;;;11.13;5.03;;;;;;;;;;5085182;28;20192;-68
2021/04/10 02:44:19;;;;;;;8.40;3.93;;;;;;;;;;5079131;28;20204;-69
2021/04/10 02:46:48;;;;;;;9.67;3.67;;;;;;;;;;5074294;28;20172;-68
2021/04/10 02:49:21;;;;;;;8.23;4.47;;;;;;;;;;5077709;28;20172;-68
2021/04/10 02:51:50;;;;;;;12.30;4.20;;;;;;;;;;5082039;28;20234;-69
2021/04/10 02:54:20;;;;;;;10.97;4.77;;;;;;;;;;5084025;28;20279;-68
2021/04/10 02:56:46;;;;;;;6.90;3.87;;;;;;;;;;5075419;28;20188;-69
2021/04/10 02:59:12;;;;;;;8.97;3.53;;;;;;;;;;5075655;28;20172;-69
2021/04/10 03:01:37;;;;;;;9.47;5.07;;;;;;;;;;5075500;28;20204;-69
2021/04/10 03:04:03;;;;;;;10.20;3.60;;;;;;;;;;5078590;28;20188;-68
2021/04/10 03:06:31;;;;;;;10.30;4.20;;;;;;;;;;5078680;28;20176;-69
2021/04/10 03:08:57;;;;;;;11.23;4.67;;;;;;;;;;5081956;28;20571;-69
2021/04/10 03:11:22;;;;;;;13.90;4.53;;;;;;;;;;5078154;28;20188;-69
2021/04/10 03:13:48;;;;;;;11.23;4.30;;;;;;;;;;5076067;28;20644;-69
2021/04/10 03:16:13;;;;;;;9.00;4.23;;;;;;;;;;5085497;28;20263;-69
2021/04/10 03:18:41;;;;;;;14.80;3.60;;;;;;;;;;5078971;28;20183;-69
2021/04/10 03:21:06;;;;;;;11.10;4.63;;;;;;;;;;5083620;28;20680;-69
2021/04/10 03:23:32;;;;;;;8.53;4.23;;;;;;;;;;5086995;28;20192;-68
2021/04/10 03:25:58;;;;;;;8.23;3.63;;;;;;;;;;5081662;28;20173;-69
2021/04/10 03:28:23;;;;;;;12.50;4.27;;;;;;;;;;5075019;28;20553;-69
2021/04/10 03:30:49;;;;;;;6.83;3.70;;;;;;;;;;5079636;28;20200;-69
2021/04/10 03:33:14;;;;;;;6.33;3.37;;;;;;;;;;5078466;28;20216;-69
2021/04/10 03:35:39;;;;;;;8.10;3.53;;;;;;;;;;5080599;28;20222;-68
2021/04/10 03:38:04;;;;;;;11.90;4.83;;;;;;;;;;5072251;28;20226;-68
2021/04/10 03:40:30;;;;;;;6.87;3.80;;;;;;;;;;5080534;28;20196;-68
2021/04/10 03:42:55;;;;;;;9.43;4.13;;;;;;;;;;5085939;28;20199;-68
2021/04/10 03:45:20;;;;;;;10.83;4.30;;;;;;;;;;5077427;28;20222;-69
2021/04/10 03:47:46;;;;;;;10.30;4.13;;;;;;;;;;5075614;28;20177;-69
2021/04/10 03:50:12;;;;;;;6.03;3.73;;;;;;;;;;5082861;28;20595;-68
2021/04/10 03:52:37;;;;;;;7.40;3.77;;;;;;;;;;5080603;28;20199;-69
2021/04/10 03:55:03;;;;;;;12.07;3.73;;;;;;;;;;5086167;28;20176;-68
2021/04/10 03:57:28;;;;;;;6.07;3.87;;;;;;;;;;5080635;28;20185;-69
2021/04/10 03:59:54;;;;;;;8.30;3.47;;;;;;;;;;5084521;28;20195;-68
2021/04/10 04:02:19;;;;;;;9.17;3.60;;;;;;;;;;5084909;28;20561;-69
2021/04/10 04:04:44;;;;;;;8.33;4.17;;;;;;;;;;5084711;28;20177;-68
2021/04/10 04:07:09;;;;;;;9.73;4.07;;;;;;;;;;5078237;28;20173;-69
2021/04/10 04:09:35;;;;;;;7.90;3.57;;;;;;;;;;5074519;28;20173;-69
2021/04/10 04:12:01;;;;;;;10.57;4.47;;;;;;;;;;5078935;28;20223;-68
2021/04/10 04:14:26;;;;;;;8.37;4.33;;;;;;;;;;5076633;28;20208;-69
2021/04/10 04:16:51;;;;;;;9.07;4.00;;;;;;;;;;5076238;28;20948;-68
2021/04/10 04:19:16;;;;;;;8.93;4.17;;;;;;;;;;5079948;28;20671;-69
2021/04/10 04:21:42;;;;;;;7.77;4.40;;;;;;;;;;5083309;28;20196;-69
2021/04/10 04:24:07;;;;;;;7.53;4.00;;;;;;;;;;5085761;28;20208;-69
2021/04/10 04:26:32;;;;;;;8.70;4.40;;;;;;;;;;5082783;28;20176;-68
2021/04/10 04:28:58;;;;;;;10.93;4.30;;;;;;;;;;5081638;28;20172;-69
2021/04/10 04:31:23;;;;;;;13.10;5.80;;;;;;;;;;5082484;28;20200;-69
2021/04/10 04:33:48;;;;;;;9.23;4.47;;;;;;;;;;5080783;28;20263;-69
2021/04/10 04:36:14;;;;;;;8.03;4.30;;;;;;;;;;5082836;28;20612;-69
2021/04/10 04:38:39;;;;;;;7.73;4.07;;;;;;;;;;5077904;28;20173;-68
2021/04/10 04:41:04;;;;;;;10.80;3.80;;;;;;;;;;5080256;28;20212;-69
2021/04/10 04:43:29;;;;;;;7.50;4.67;;;;;;;;;;5088517;28;20223;-69
2021/04/10 04:45:54;;;;;;;9.83;4.10;;;;;;;;;;5076940;28;20586;-69
2021/04/10 04:48:19;;;;;;;12.50;4.33;;;;;;;;;;5083109;28;20217;-68
2021/04/10 04:50:45;;;;;;;11.77;4.03;;;;;;;;;;5083763;28;20188;-69
2021/04/10 04:53:10;;;;;;;11.67;5.07;;;;;;;;;;5083680;28;20182;-68
2021/04/10 04:55:35;;;;;;;11.53;4.33;;;;;;;;;;5081655;28;20177;-67
2021/04/10 04:58:00;;;;;;;10.90;4.17;;;;;;;;;;5082357;28;20314;-69
2021/04/10 05:00:25;;;;;;;14.73;4.43;;;;;;;;;;5075544;28;20231;-68
2021/04/10 05:02:51;;;;;;;6.23;4.17;;;;;;;;;;5064167;28;20231;-69
2021/04/10 05:05:16;;;;;;;7.87;4.20;;;;;;;;;;5067312;28;20690;-69
2021/04/10 05:07:41;;;;;;;11.70;5.07;;;;;;;;;;5063861;28;20240;-69
2021/04/10 05:10:07;;;;;;;11.73;4.53;;;;;;;;;;5062744;28;20272;-69
2021/04/10 05:12:32;;;;;;;10.60;4.10;;;;;;;;;;5067145;28;20183;-68
2021/04/10 05:14:57;;;;;;;6.27;3.53;;;;;;;;;;5064653;28;20177;-69
2021/04/10 05:17:22;;;;;;;10.03;4.67;;;;;;;;;;5070788;28;20180;-68
2021/04/10 05:19:47;;;;;;;7.57;4.20;;;;;;;;;;5067358;28;20259;-68
2021/04/10 05:22:13;;;;;;;7.77;3.90;;;;;;;;;;5065035;28;20196;-68
2021/04/10 05:24:38;;;;;;;12.57;4.90;;;;;;;;;;5064410;28;20621;-67
2021/04/10 05:27:03;;;;;;;10.03;4.93;;;;;;;;;;5065134;28;20256;-69
2021/04/10 05:29:28;;;;;;;8.17;3.77;;;;;;;;;;5065372;28;20615;-68
2021/04/10 05:31:54;;;;;;;12.00;3.97;;;;;;;;;;5070073;28;20644;-68
2021/04/10 05:34:19;;;;;;;14.00;4.37;;;;;;;;;;5064092;28;20203;-68
2021/04/10 05:36:44;;;;;;;11.87;4.73;;;;;;;;;;5066345;28;21901;-68
2021/04/10 05:39:09;;;;;;;7.53;3.60;;;;;;;;;;5063058;28;20990;-68
2021/04/10 05:41:34;;;;;;;7.47;4.40;;;;;;;;;;5065343;28;20685;-68
2021/04/10 05:44:00;;;;;;;5.47;3.13;;;;;;;;;;5064056;28;20215;-67
2021/04/10 05:46:25;;;;;;;9.67;4.03;;;;;;;;;;5064043;28;20176;-68
2021/04/10 05:48:50;;;;;;;8.80;3.70;;;;;;;;;;5063369;28;20241;-68
2021/04/10 05:51:15;;;;;;;9.13;3.30;;;;;;;;;;5063541;28;20275;-68
2021/04/10 05:53:43;;;;;;;11.00;4.37;;;;;;;;;;5063730;28;20670;-69
2021/04/10 05:56:08;;;;;;;10.80;3.97;;;;;;;;;;5063708;28;20638;-67
2021/04/10 05:58:34;;;;;;;6.33;3.27;;;;;;;;;;5062132;28;20173;-69
2021/04/10 06:00:59;;;;;;;6.87;3.40;;;;;;;;;;5064777;28;20279;-67
2021/04/10 06:03:24;;;;;;;7.27;3.23;;;;;;;;;;5063072;28;20628;-68
2021/04/10 06:05:49;;;;;;;7.87;4.30;;;;;;;;;;5067848;28;20189;-67
2021/04/10 06:08:14;;;;;;;12.23;3.73;;;;;;;;;;5065864;28;20169;-68
2021/04/10 06:10:40;;;;;;;8.47;3.00;;;;;;;;;;5064637;28;20519;-68
2021/04/10 06:13:05;;;;;;;8.87;3.03;;;;;;;;;;5064840;28;20195;-66
2021/04/10 06:15:30;;;;;;;7.90;3.13;;;;;;;;;;5063440;28;20196;-68
2021/04/10 06:17:55;;;;;;;15.73;5.20;;;;;;;;;;5063938;28;21789;-68
2021/04/10 06:20:21;;;;;;;9.57;3.37;;;;;;;;;;5065550;28;20216;-68
2021/04/10 06:22:46;;;;;;;9.50;4.23;;;;;;;;;;5063911;28;20261;-68
2021/04/10 06:25:11;;;;;;;9.20;3.00;;;;;;;;;;5062825;28;20191;-68
2021/04/10 06:27:37;;;;;;;7.53;2.80;;;;;;;;;;5070561;28;20545;-68
2021/04/10 06:30:03;;;;;;;8.83;3.80;;;;;;;;;;5063531;28;20173;-68
2021/04/10 06:32:29;;;;;;;9.20;3.40;;;;;;;;;;5065903;28;20188;-68
2021/04/10 06:34:54;;;;;;;12.13;3.07;;;;;;;;;;5063115;28;20257;-69
2021/04/10 06:37:19;;;;;;;6.43;2.57;;;;;;;;;;5067022;28;20271;-68
2021/04/10 06:39:44;;;;;;;10.00;3.43;;;;;;;;;;5060513;28;20185;-67
2021/04/10 06:42:09;;;;;;;7.03;2.87;;;;;;;;;;5066474;28;20228;-68
2021/04/10 06:44:35;;;;;;;7.67;2.20;;;;;;;;;;5065480;28;20642;-68
2021/04/10 06:47:03;;;;;;;6.57;2.50;;;;;;;;;;5060905;28;20180;-67
2021/04/10 06:49:31;;;;;;;8.80;3.03;;;;;;;;;;5060012;28;21391;-68
2021/04/10 06:52:01;;;;;;;10.30;2.70;;;;;;;;;;5064082;28;20682;-68
2021/04/10 06:54:33;;;;;;;10.20;3.53;;;;;;;;;;5062203;28;20188;-67
2021/04/10 06:57:03;;;;;;;5.67;2.87;;;;;;;;;;5064079;28;20195;-67
2021/04/10 06:59:52;;;;;;;11.00;2.90;;;;;;;;;;5060004;28;20184;-68
2021/04/10 07:02:17;;;;;;;8.73;3.17;;;;;;;;;;5065789;28;20201;-68
2021/04/10 07:04:42;;;;;;;7.93;2.83;;;;;;;;;;5061897;28;20301;-68
2021/04/10 07:07:09;;;;;;;7.00;3.10;;;;;;;;;;5070074;28;20666;-69
2021/04/10 07:09:35;;;;;;;9.03;3.63;;;;;;;;;;5061511;28;20265;-67
2021/04/10 07:12:00;;;;;;;11.87;3.37;;;;;;;;;;5065026;28;20291;-68
2021/04/10 07:14:25;;;;;;;7.77;3.57;;;;;;;;;;5062746;28;20318;-68
2021/04/10 07:16:51;;;;;;;7.07;3.03;;;;;;;;;;5066380;28;20804;-68
2021/04/10 07:19:16;;;;;;;10.53;3.30;;;;;;;;;;5065386;28;20201;-68
2021/04/10 07:21:41;;;;;;;6.70;2.83;;;;;;;;;;5064991;28;20205;-70
2021/04/10 07:24:07;;;;;;;8.57;3.40;;;;;;;;;;5064671;28;20591;-67
2021/04/10 07:26:47;;;;;;;10.93;2.80;;;;;;;;;;5067577;28;20184;-68
2021/04/10 07:29:31;;;;;;;7.47;3.00;;;;;;;;;;5061380;28;20577;-68
2021/04/10 07:31:57;;;;;;;11.33;4.03;;;;;;;;;;5067167;28;20567;-67
2021/04/10 07:34:23;;;;;;;11.73;3.10;;;;;;;;;;5065821;28;20219;-67
2021/04/10 07:37:01;;;;;;;9.57;2.80;;;;;;;;;;5067482;28;20232;-68
2021/04/10 07:39:26;;;;;;;7.43;2.97;;;;;;;;;;5065105;28;20188;-68
2021/04/10 07:42:04;;;;;;;6.27;2.87;;;;;;;;;;5068366;28;20215;-68
2021/04/10 07:44:36;;;;;;;7.57;2.93;;;;;;;;;;5070498;28;20486;-68
2021/04/10 07:47:05;;;;;;;7.07;2.47;;;;;;;;;;5064670;28;20177;-68
2021/04/10 07:49:31;;;;;;;10.30;3.10;;;;;;;;;;5065136;28;20184;-68
2021/04/10 07:51:57;;;;;;;12.73;2.93;;;;;;;;;;5065335;28;20305;-68
2021/04/10 07:54:27;;;;;;;8.20;2.37;;;;;;;;;;5065015;28;20192;-67
2021/04/10 07:56:52;;;;;;;6.07;1.70;;;;;;;;;;5068251;28;20226;-66
2021/04/10 07:59:17;;;;;;;7.97;2.60;;;;;;;;;;5065667;28;20272;-68
2021/04/10 08:01:42;;;;;;;5.97;2.73;;;;;;;;;;5066925;28;20204;-68
2021/04/10 08:04:14;;;;;;;5.33;2.13;;;;;;;;;;5066123;28;20212;-68
2021/04/10 08:06:52;;;;;;;10.13;2.80;;;;;;;;;;5071671;28;20218;-68
2021/04/10 08:09:25;;;;;;;3.50;2.27;;;;;;;;;;5068236;28;20561;-67
2021/04/10 08:11:51;;;;;;;5.97;2.07;;;;;;;;;;5071814;28;20225;-68
2021/04/10 08:14:16;;;;;;;5.63;2.10;;;;;;;;;;5065066;28;20606;-68
2021/04/10 08:16:42;;;;;;;4.13;2.20;;;;;;;;;;5066496;28;20595;-68
2021/04/10 08:19:08;;;;;;;5.80;2.20;;;;;;;;;;5066565;28;20188;-67
2021/04/10 08:21:33;;;;;;;4.67;2.17;;;;;;;;;;5066144;28;20208;-68
2021/04/10 08:23:59;;;;;;;8.43;2.50;;;;;;;;;;5063862;28;20207;-68
2021/04/10 08:26:24;;;;;;;4.47;2.37;;;;;;;;;;5065185;28;20428;-69
2021/04/10 08:28:50;;;;;;;5.57;2.30;;;;;;;;;;5062648;28;20203;-68
2021/04/10 08:31:15;;;;;;;5.07;2.10;;;;;;;;;;5067094;28;20198;-67
2021/04/10 08:33:40;;;;;;;4.30;1.93;;;;;;;;;;5062186;28;20180;-68
2021/04/10 08:36:09;;;;;;;3.83;2.20;;;;;;;;;;5065604;28;20189;-68
2021/04/10 08:38:37;;;;;;;8.40;2.50;;;;;;;;;;5063918;28;20272;-68
2021/04/10 08:41:04;;;;;;;4.63;2.47;;;;;;;;;;5065325;28;21959;-67
2021/04/10 08:43:31;;;;;;;3.30;2.00;;;;;;;;;;5067996;28;20686;-67
2021/04/10 08:45:57;;;;;;;6.17;2.40;;;;;;;;;;5065213;28;20676;-68
2021/04/10 08:48:22;;;;;;;5.93;2.43;;;;;;;;;;5063241;28;20169;-67
2021/04/10 08:50:51;;;;;;;8.53;2.70;;;;;;;;;;5068031;28;20211;-68
2021/04/10 08:53:23;;;;;;;5.80;2.30;;;;;;;;;;5065993;28;20181;-66
2021/04/10 08:55:50;;;;;;;6.10;2.17;;;;;;;;;;5067086;28;20200;-67
2021/04/10 08:58:28;;;;;;;6.33;2.20;;;;;;;;;;5066914;28;20188;-69
2021/04/10 09:00:58;;;;;;;4.87;2.07;;;;;;;;;;5078978;28;20195;-69
2021/04/10 09:03:42;;;;;;;8.47;2.90;;;;;;;;;;5068410;28;20193;-69
2021/04/10 09:06:07;;;;;;;6.97;2.53;;;;;;;;;;5071529;28;20267;-67
2021/04/10 09:08:33;;;;;;;7.27;2.60;;;;;;;;;;5072468;28;20275;-68
2021/04/10 09:10:59;;;;;;;7.37;2.60;;;;;;;;;;5084317;28;20257;-67
2021/04/10 09:13:26;;;;;;;8.67;2.60;;;;;;;;;;5067119;28;20754;-69
2021/04/10 09:16:10;;;;;;;10.73;3.30;;;;;;;;;;5072423;28;20185;-69
2021/04/10 09:18:36;;;;;;;7.30;2.50;;;;;;;;;;5066892;28;20185;-69
2021/04/10 09:21:24;;;;;;;6.63;2.77;;;;;;;;;;5068282;28;20201;-69
2021/04/10 09:23:50;;;;;;;4.40;1.90;;;;;;;;;;5083604;28;20596;-69
2021/04/10 09:26:16;;;;;;;6.87;3.33;;;;;;;;;;5091618;28;20183;-69
2021/04/10 09:28:54;;;;;;;7.77;2.90;;;;;;;;;;5082605;28;20642;-69
2021/04/10 09:31:55;;;;;;;6.67;3.07;;;;;;;;;;5079279;28;20200;-67
2021/04/10 09:34:38;;;;;;;8.80;2.40;;;;;;;;;;5080575;28;20352;-69
2021/04/10 09:37:04;;;;;;;5.93;2.80;;;;;;;;;;5069080;28;20269;-68
2021/04/10 09:39:47;;;;;;;6.50;2.93;;;;;;;;;;5071478;28;20165;-68
2021/04/10 09:42:33;;;;;;;5.40;3.03;;;;;;;;;;5071427;28;20196;-69
2021/04/10 09:45:11;;;;;;;5.57;2.80;;;;;;;;;;5068239;28;20187;-68
2021/04/10 09:47:55;;;;;;;5.43;3.10;;;;;;;;;;5068272;28;20272;-67
2021/04/10 09:50:27;;;;;;;5.03;2.40;;;;;;;;;;5074727;28;20862;-69
2021/04/10 09:52:56;;;;;;;5.63;3.37;;;;;;;;;;5071104;28;20187;-68
2021/04/10 09:55:21;;;;;;;6.93;2.87;;;;;;;;;;5072270;28;20271;-68
2021/04/10 09:57:57;;;;;;;4.97;2.80;;;;;;;;;;5069709;28;21087;-68
2021/04/10 10:00:26;;;;;;;10.13;3.30;;;;;;;;;;5068506;28;20211;-68
2021/04/10 10:02:54;;;;;;;4.33;2.90;;;;;;;;;;5069394;28;20208;-68
2021/04/10 10:05:19;;;;;;;4.07;2.43;;;;;;;;;;5066657;28;20177;-69
2021/04/10 10:07:45;;;;;;;8.10;2.63;;;;;;;;;;5073537;28;20172;-68
2021/04/10 10:10:11;;;;;;;6.13;2.60;;;;;;;;;;5069789;28;20215;-68
2021/04/10 10:12:36;;;;;;;4.77;2.57;;;;;;;;;;5071687;28;20889;-69
2021/04/10 10:15:01;;;;;;;7.17;2.73;;;;;;;;;;5069169;28;20211;-67
2021/04/10 10:17:27;;;;;;;6.93;3.00;;;;;;;;;;5067482;28;20204;-68
2021/04/10 10:20:09;;;;;;;5.80;2.70;;;;;;;;;;5068047;28;20188;-68
2021/04/10 10:22:34;;;;;;;5.13;3.00;;;;;;;;;;5067420;28;20191;-68
2021/04/10 10:25:01;;;;;;;9.10;3.73;;;;;;;;;;5065149;28;20788;-68
2021/04/10 10:27:36;;;;;;;8.53;3.83;;;;;;;;;;5070854;28;20184;-68
2021/04/10 10:30:12;;;;;;;7.07;2.83;;;;;;;;;;5058167;28;20567;-67
2021/04/10 10:32:37;;;;;;;8.27;3.10;;;;;;;;;;5072073;28;20187;-69
2021/04/10 10:35:06;;;;;;;6.63;2.87;;;;;;;;;;5062936;28;20686;-68
2021/04/10 10:37:32;;;;;;;9.27;3.17;;;;;;;;;;5062136;28;20185;-68
2021/04/10 10:39:57;;;;;;;8.37;2.80;;;;;;;;;;5064616;28;20524;-68
2021/04/10 10:42:23;;;;;;;7.33;3.53;;;;;;;;;;5064576;28;20189;-68
2021/04/10 10:44:48;;;;;;;7.13;2.80;;;;;;;;;;5063362;28;20183;-68
2021/04/10 10:47:14;;;;;;;6.63;3.27;;;;;;;;;;5068365;28;20549;-67
2021/04/10 10:49:39;;;;;;;9.17;3.20;;;;;;;;;;5062994;28;20547;-66
2021/04/10 10:52:04;;;;;;;5.93;3.23;;;;;;;;;;5064116;28;20737;-68
2021/04/10 10:54:30;;;;;;;5.47;2.80;;;;;;;;;;5067591;28;20180;-68
2021/04/10 10:56:56;;;;;;;5.57;2.73;;;;;;;;;;5064797;28;20180;-66
2021/04/10 10:59:25;;;;;;;6.63;2.53;;;;;;;;;;5065003;28;20180;-68
2021/04/10 11:01:50;;;;;;;6.17;3.10;;;;;;;;;;5065506;28;20642;-68
2021/04/10 11:04:24;;;;;;;7.00;3.00;;;;;;;;;;5073787;28;20212;-68
2021/04/10 11:06:50;;;;;;;4.73;2.67;;;;;;;;;;5068773;28;20165;-67
2021/04/10 11:09:21;;;;;;;9.50;3.43;;;;;;;;;;5062232;28;20669;-68
2021/04/10 11:11:48;;;;;;;6.90;3.10;;;;;;;;;;5061932;28;20207;-67
2021/04/10 11:14:20;;;;;;;8.20;2.53;;;;;;;;;;5062980;28;20181;-67
2021/04/10 11:16:46;;;;;;;7.63;3.90;;;;;;;;;;5062552;28;20670;-68
2021/04/10 11:19:12;;;;;;;7.13;3.07;;;;;;;;;;5063710;28;20194;-68
2021/04/10 11:21:37;;;;;;;7.17;2.80;;;;;;;;;;5066072;28;20204;-67
2021/04/10 11:24:13;;;;;;;4.23;2.90;;;;;;;;;;5064049;28;20819;-67
2021/04/10 11:26:43;;;;;;;4.47;2.30;;;;;;;;;;5062890;28;20181;-68
2021/04/10 11:29:11;;;;;;;8.20;2.70;;;;;;;;;;5061357;28;20272;-68
2021/04/10 11:31:36;;;;;;;9.20;3.63;;;;;;;;;;5061567;28;20257;-67
2021/04/10 11:34:22;;;;;;;6.00;3.03;;;;;;;;;;5060584;28;20189;-68
2021/04/10 11:36:51;;;;;;;11.70;3.90;;;;;;;;;;5063335;28;20693;-68
2021/04/10 11:39:16;;;;;;;7.17;2.77;;;;;;;;;;5061944;28;20185;-69
2021/04/10 11:41:44;;;;;;;4.90;2.07;;;;;;;;;;5064325;28;20231;-70
2021/04/10 11:44:10;;;;;;;7.80;2.63;;;;;;;;;;5066851;28;20215;-68
2021/04/10 11:46:35;;;;;;;5.53;2.80;;;;;;;;;;5063996;28;20181;-68
2021/04/10 11:49:00;;;;;;;7.23;2.93;;;;;;;;;;5063244;28;20181;-69
2021/04/10 11:51:26;;;;;;;8.80;2.40;;;;;;;;;;5060524;28;20197;-68
2021/04/10 11:53:52;;;;;;;9.73;2.57;;;;;;;;;;5062602;28;20192;-67
2021/04/10 11:56:34;;;;;;;7.30;2.83;;;;;;;;;;5062751;28;20491;-68
2021/04/10 11:59:07;;;;;;;7.97;2.90;;;;;;;;;;5061061;28;20184;-67
2021/04/10 12:01:32;;;;;;;6.73;2.80;;;;;;;;;;5062271;28;20991;-67
2021/04/10 12:04:02;;;;;;;4.90;2.90;;;;;;;;;;5061288;28;20286;-69
2021/04/10 12:06:32;;;;;;;8.43;3.07;;;;;;;;;;5065141;28;20211;-67
2021/04/10 12:09:01;;;;;;;6.80;3.10;;;;;;;;;;5062707;28;20196;-68
2021/04/10 12:11:26;;;;;;;9.47;3.43;;;;;;;;;;5070920;28;20566;-68
2021/04/10 12:13:51;;;;;;;5.17;2.73;;;;;;;;;;5062837;28;20193;-69
2021/04/10 12:16:17;;;;;;;9.10;4.33;;;;;;;;;;5062256;28;20275;-67
2021/04/10 12:18:42;;;;;;;8.37;3.10;;;;;;;;;;5062221;28;20268;-68
2021/04/10 12:21:07;;;;;;;5.50;2.47;;;;;;;;;;5067416;28;20213;-69
2021/04/10 12:23:32;;;;;;;5.97;3.30;;;;;;;;;;5070184;28;20239;-68
2021/04/10 12:25:58;;;;;;;7.50;3.47;;;;;;;;;;5074232;28;20260;-67
2021/04/10 12:28:24;;;;;;;5.43;3.50;;;;;;;;;;5067422;28;20169;-67
2021/04/10 12:30:50;;;;;;;9.33;3.17;;;;;;;;;;5067847;28;20207;-68
2021/04/10 12:33:15;;;;;;;7.87;3.17;;;;;;;;;;5069057;28;20590;-69
2021/04/10 12:35:40;;;;;;;7.10;4.20;;;;;;;;;;5069092;28;20302;-69
2021/04/10 12:38:05;;;;;;;8.03;3.03;;;;;;;;;;5070981;28;20185;-70
2021/04/10 12:40:31;;;;;;;7.27;3.80;;;;;;;;;;5067470;28;20196;-68
2021/04/10 12:42:56;;;;;;;6.00;3.60;;;;;;;;;;5066978;28;20240;-71
2021/04/10 12:45:21;;;;;;;6.20;4.03;;;;;;;;;;5064590;28;20238;-68
2021/04/10 12:47:47;;;;;;;9.40;3.90;;;;;;;;;;5067557;28;20228;-67
2021/04/10 12:50:14;;;;;;;7.63;3.53;;;;;;;;;;5067760;28;20279;-68
2021/04/10 12:52:39;;;;;;;7.67;3.50;;;;;;;;;;5065963;28;20661;-68
2021/04/10 12:55:05;;;;;;;8.47;2.73;;;;;;;;;;5065707;28;20370;-66
2021/04/10 12:57:31;;;;;;;9.43;3.43;;;;;;;;;;5067166;28;20173;-67
2021/04/10 12:59:56;;;;;;;10.10;3.90;;;;;;;;;;5064503;28;20250;-68
2021/04/10 13:02:21;;;;;;;6.70;3.17;;;;;;;;;;5066563;28;20267;-67
2021/04/10 13:04:46;;;;;;;6.67;3.20;;;;;;;;;;5065654;28;20216;-68
2021/04/10 13:07:11;;;;;;;7.10;3.60;;;;;;;;;;5072624;28;20177;-67
2021/04/10 13:09:37;;;;;;;5.07;2.97;;;;;;;;;;5065729;28;20287;-69
2021/04/10 13:12:02;;;;;;;6.47;3.50;;;;;;;;;;5071563;28;20242;-68
2021/04/10 13:14:27;;;;;;;7.33;4.03;;;;;;;;;;5063312;28;20566;-70
2021/04/10 13:16:53;;;;;;;7.10;3.23;;;;;;;;;;5066410;28;20748;-68
2021/04/10 13:19:19;;;;;;;11.23;4.23;;;;;;;;;;5064992;28;20666;-68
2021/04/10 13:21:44;;;;;;;10.23;4.60;;;;;;;;;;5067002;28;20231;-67
2021/04/10 13:24:10;;;;;;;6.30;3.90;;;;;;;;;;5066089;28;20237;-67
2021/04/10 13:26:36;;;;;;;10.93;5.13;;;;;;;;;;5063266;28;20212;-68
2021/04/10 13:29:02;;;;;;;16.50;5.13;;;;;;;;;;5064930;28;20262;-68
2021/04/10 13:31:27;;;;;;;7.10;4.63;;;;;;;;;;5060149;28;20231;-68
2021/04/10 13:33:52;;;;;;;11.03;5.23;;;;;;;;;;5063900;28;20542;-68
2021/04/10 13:36:17;;;;;;;13.30;5.93;;;;;;;;;;5067058;28;20264;-68
2021/04/10 13:38:42;;;;;;;9.77;5.17;;;;;;;;;;5066052;28;20665;-67
2021/04/10 13:41:08;;;;;;;8.50;5.10;;;;;;;;;;5064472;28;20275;-68
2021/04/10 13:43:33;;;;;;;7.27;4.83;;;;;;;;;;5064090;28;20721;-67
2021/04/10 13:45:59;;;;;;;11.80;5.63;;;;;;;;;;5065308;28;20255;-67
2021/04/10 13:48:24;;;;;;;9.37;6.10;;;;;;;;;;5063613;28;20187;-67
2021/04/10 13:50:50;;;;;;;8.07;4.97;;;;;;;;;;5064894;28;20763;-68
2021/04/10 13:53:15;;;;;;;7.90;5.93;;;;;;;;;;5062144;28;20185;-68
2021/04/10 13:55:41;;;;;;;7.67;6.30;;;;;;;;;;5067700;28;20184;-69
2021/04/10 13:58:06;;;;;;;11.13;7.80;;;;;;;;;;5063893;28;20234;-68
2021/04/10 14:00:31;;;;;;;12.27;7.90;;;;;;;;;;5063488;28;20201;-67
2021/04/10 14:02:56;;;;;;;15.17;8.33;;;;;;;;;;5061762;28;20293;-68
2021/04/10 14:05:22;;;;;;;9.47;8.17;;;;;;;;;;5066009;28;20297;-68
2021/04/10 14:07:47;;;;;;;12.47;8.73;;;;;;;;;;5069823;28;20180;-68
2021/04/10 14:10:14;;;;;;;12.70;8.90;;;;;;;;;;5062809;28;20327;-66
2021/04/10 14:12:39;;;;;;;9.97;8.07;;;;;;;;;;5064591;28;20314;-67
2021/04/10 14:15:06;;;;;;;9.43;7.47;;;;;;;;;;5063230;28;20224;-67
2021/04/10 14:17:31;;;;;;;13.17;7.87;;;;;;;;;;5066735;28;20175;-68
2021/04/10 14:19:56;;;;;;;11.77;8.97;;;;;;;;;;5062542;28;20615;-67
2021/04/10 14:22:23;;;;;;;15.17;8.77;;;;;;;;;;5065641;28;20176;-67
2021/04/10 14:24:48;;;;;;;14.77;8.03;;;;;;;;;;5060231;28;20295;-68
2021/04/10 14:27:13;;;;;;;11.30;7.90;;;;;;;;;;5067270;28;20680;-68
2021/04/10 14:29:42;;;;;;;14.67;9.17;;;;;;;;;;5062759;28;20310;-67
2021/04/10 14:32:07;;;;;;;13.17;9.40;;;;;;;;;;5063308;28;20250;-67
2021/04/10 14:34:32;;;;;;;19.50;10.87;;;;;;;;;;5064752;28;20192;-67
2021/04/10 14:36:58;;;;;;;14.93;9.40;;;;;;;;;;5064676;28;20188;-68